Time;durP1;ratioP1;P1;durP2;ratioP2;P2;SDS_P1;SDS_P2;PMS_P1;PMS_P2;Temp;Humidity;BMP_temperature;BMP_pressure;BME280_temperature;BME280_humidity;BME280_pressure;Samples;Min_cycle;Max_cycle;Signal;HPM_P1;HPM_P2
2021/07/14 00:01:18;;;;;;;11.87;9.83;;;;;;;21.56;83.25;100590.05;1821249;76;21046;-72
2021/07/14 00:03:45;;;;;;;10.33;9.23;;;;;;;21.54;83.19;100589.00;1822248;76;21078;-72
2021/07/14 00:06:12;;;;;;;10.87;9.77;;;;;;;21.52;83.37;100593.20;1825626;77;21037;-72
2021/07/14 00:08:39;;;;;;;10.37;9.30;;;;;;;21.48;83.45;100592.24;1822311;76;21155;-73
2021/07/14 00:11:06;;;;;;;10.73;9.67;;;;;;;21.45;83.59;100588.82;1799498;78;21081;-72
2021/07/14 00:13:45;;;;;;;10.53;9.50;;;;;;;21.42;83.69;100592.20;1807859;77;21576;-72
2021/07/14 00:24:21;;;;;;;13.73;9.60;;;;;;;21.23;83.84;100588.54;1830462;77;21549;-73
2021/07/14 00:26:49;;;;;;;12.77;10.57;;;;;;;21.18;83.90;100585.42;1826253;77;21066;-73
2021/07/14 00:29:16;;;;;;;11.47;10.17;;;;;;;21.14;83.90;100583.70;1827438;76;21035;-73
2021/07/14 00:31:42;;;;;;;13.53;9.93;;;;;;;21.10;83.92;100581.42;1831232;77;21027;-73
2021/07/14 00:34:09;;;;;;;12.80;10.30;;;;;;;21.07;83.99;100584.22;1835489;77;21796;-72
2021/07/14 00:36:36;;;;;;;13.90;10.50;;;;;;;21.04;84.15;100593.02;1829120;77;21082;-73
2021/07/14 00:39:04;;;;;;;11.07;9.93;;;;;;;21.00;84.22;100590.73;1813600;77;21082;-73
2021/07/14 00:41:31;;;;;;;12.10;10.90;;;;;;;20.96;84.25;100582.44;1836599;76;21010;-73
2021/07/14 00:43:57;;;;;;;13.07;10.10;;;;;;;20.95;84.31;100589.53;1831753;76;21031;-73
2021/07/14 00:46:26;;;;;;;11.63;9.87;;;;;;;20.93;84.38;100589.09;1824929;77;21763;-73
2021/07/14 00:48:58;;;;;;;11.60;10.40;;;;;;;20.90;84.50;100587.81;1824123;77;21479;-73
2021/07/14 00:51:29;;;;;;;12.00;9.83;;;;;;;20.89;84.60;100590.83;1829532;77;21042;-72
2021/07/14 00:53:57;;;;;;;12.90;10.37;;;;;;;20.88;84.80;100585.97;1841495;76;21553;-72
2021/07/14 00:56:28;;;;;;;11.73;9.80;;;;;;;20.85;84.96;100592.84;1805866;77;21098;-72
2021/07/14 00:58:56;;;;;;;11.73;10.20;;;;;;;20.83;85.05;100595.66;1825031;77;21081;-72
2021/07/14 01:01:24;;;;;;;11.57;10.00;;;;;;;20.80;85.21;100593.03;1823921;76;21074;-72
2021/07/14 01:04:09;;;;;;;11.23;9.67;;;;;;;20.78;85.37;100600.69;1840191;77;21003;-72
2021/07/14 01:06:49;;;;;;;11.97;10.37;;;;;;;20.77;85.54;100598.31;1828018;77;21027;-71
2021/07/14 01:09:33;;;;;;;14.60;10.60;;;;;;;20.73;85.68;100594.09;1833710;76;21133;-73
2021/07/14 01:12:14;;;;;;;11.00;9.93;;;;;;;20.72;85.81;100592.48;1836195;77;21184;-72
2021/07/14 01:14:54;;;;;;;13.70;10.40;;;;;;;20.71;85.90;100594.97;1831306;76;21011;-72
2021/07/14 01:17:23;;;;;;;11.40;10.27;;;;;;;20.68;86.01;100594.27;1826675;77;21003;-72
2021/07/14 01:19:58;;;;;;;11.30;10.10;;;;;;;20.65;86.13;100588.12;1805022;76;21058;-72
2021/07/14 01:23:01;;;;;;;10.67;9.50;;;;;;;20.64;86.19;100595.25;1837865;77;21073;-72
2021/07/14 01:25:48;;;;;;;11.60;9.70;;;;;;;20.62;86.27;100595.55;1823399;77;21112;-72
2021/07/14 01:28:15;;;;;;;12.07;10.87;;;;;;;20.59;86.36;100596.20;1772232;77;21029;-72
2021/07/14 01:30:44;;;;;;;11.77;10.63;;;;;;;20.53;86.40;100585.27;1769606;78;21109;-72
2021/07/14 01:33:10;;;;;;;12.47;11.20;;;;;;;20.50;86.45;100588.60;1837859;77;21012;-72
2021/07/14 01:35:41;;;;;;;12.73;10.73;;;;;;;20.46;86.49;100581.67;1789846;78;21738;-72
2021/07/14 01:38:10;;;;;;;12.18;10.98;;;;;;;20.43;86.54;100582.87;1847272;75;21140;-72
2021/07/14 01:40:37;;;;;;;12.03;10.90;;;;;;;20.42;86.61;100586.72;1847878;75;21039;-72
2021/07/14 01:43:05;;;;;;;11.47;10.37;;;;;;;20.40;86.66;100584.34;1840564;77;21534;-71
2021/07/14 01:45:33;;;;;;;12.40;11.10;;;;;;;20.38;86.70;100586.00;1820847;76;21061;-72
2021/07/14 01:48:01;;;;;;;12.33;11.13;;;;;;;20.37;86.84;100589.05;1822374;77;21034;-72
2021/07/14 01:50:32;;;;;;;11.90;10.67;;;;;;;20.36;86.99;100586.08;1830198;77;21421;-72
2021/07/14 01:52:59;;;;;;;13.30;11.13;;;;;;;20.36;87.14;100586.88;1808926;78;21017;-72
2021/07/14 01:55:26;;;;;;;12.30;11.00;;;;;;;20.36;87.31;100595.02;1820549;76;21042;-72
2021/07/14 01:57:54;;;;;;;11.50;10.40;;;;;;;20.35;87.42;100594.78;1828384;76;21054;-73
2021/07/14 02:00:21;;;;;;;11.90;10.70;;;;;;;20.36;87.47;100595.57;1822324;77;21018;-73
2021/07/14 02:03:28;;;;;;;12.23;11.03;;;;;;;20.37;87.54;100599.91;1820992;77;21900;-72
2021/07/14 02:05:16;;;;;;;12.27;11.07;;;;;;;20.36;87.61;100595.02;1809273;76;21050;-71
2021/07/14 02:07:45;;;;;;;12.67;11.47;;;;;;;20.35;87.71;100590.72;1823127;76;21586;-71
2021/07/14 02:10:11;;;;;;;12.80;11.50;;;;;;;20.35;87.77;100592.06;1827500;78;21030;-71
2021/07/14 02:12:38;;;;;;;12.33;11.03;;;;;;;20.34;87.83;100586.41;1757631;78;21456;-72
2021/07/14 02:15:09;;;;;;;12.87;11.53;;;;;;;20.35;87.89;100590.72;1812934;78;21430;-72
2021/07/14 02:17:44;;;;;;;12.47;11.17;;;;;;;20.35;87.93;100592.06;1823535;76;21053;-72
2021/07/14 02:20:18;;;;;;;12.77;11.27;;;;;;;20.34;88.02;100588.34;1793317;78;21022;-72
2021/07/14 02:22:46;;;;;;;12.30;11.10;;;;;;;20.33;88.24;100598.36;1824121;77;21058;-72
2021/07/14 02:25:13;;;;;;;12.63;11.40;;;;;;;20.33;88.53;100603.79;1831135;77;20980;-71
2021/07/14 02:27:42;;;;;;;12.23;11.10;;;;;;;20.34;88.81;100599.98;1834150;76;21110;-71
2021/07/14 02:30:22;;;;;;;12.20;11.03;;;;;;;20.35;89.15;100608.34;1826327;77;21549;-72
2021/07/14 02:32:59;;;;;;;11.90;10.77;;;;;;;20.35;89.46;100604.84;1811957;76;21110;-71
2021/07/14 02:35:28;;;;;;;11.97;10.88;;;;;;;20.36;89.64;100605.06;1834659;77;21066;-71
2021/07/14 02:38:22;;;;;;;12.30;11.00;;;;;;;20.37;89.85;100612.90;1836159;75;21007;-72
2021/07/14 02:41:17;;;;;;;12.97;11.73;;;;;;;20.39;90.05;100609.29;1837737;75;21101;-71
2021/07/14 02:43:47;;;;;;;14.17;12.60;;;;;;;20.43;90.21;100616.78;1811284;77;21073;-72
2021/07/14 02:46:23;;;;;;;13.22;11.83;;;;;;;20.48;90.32;100611.20;1820187;76;21081;-72
2021/07/14 02:48:46;;;;;;;13.03;11.73;;;;;;;20.52;90.38;100618.96;1826599;76;21065;-72
2021/07/14 02:51:13;;;;;;;12.03;10.93;;;;;;;20.57;90.42;100621.52;1810691;77;21077;-72
2021/07/14 02:53:45;;;;;;;12.47;11.07;;;;;;;20.60;90.37;100624.38;1828346;77;21646;-72
2021/07/14 02:56:16;;;;;;;12.15;10.28;;;;;;;20.65;90.32;100627.47;1830554;77;21027;-71
2021/07/14 02:58:54;;;;;;;11.85;10.68;;;;;;;20.69;90.19;100631.13;1828159;77;21031;-72
2021/07/14 03:01:20;;;;;;;11.60;10.53;;;;;;;20.73;90.11;100628.56;1849346;75;21028;-72
2021/07/14 03:03:50;;;;;;;12.57;11.37;;;;;;;20.76;89.90;100627.38;1832447;77;20975;-72
2021/07/14 03:06:18;;;;;;;13.60;12.30;;;;;;;20.80;89.62;100628.33;1819206;77;21468;-72
2021/07/14 03:08:47;;;;;;;13.77;12.37;;;;;;;20.84;89.43;100630.62;1855813;75;20959;-72
2021/07/14 03:11:15;;;;;;;14.20;12.80;;;;;;;20.90;89.29;100629.89;1824803;77;20990;-72
2021/07/14 03:13:44;;;;;;;13.57;12.30;;;;;;;20.94;89.12;100636.83;1835934;77;21501;-73
2021/07/14 03:16:11;;;;;;;14.53;13.00;;;;;;;20.99;89.01;100640.70;1807096;77;22152;-72
2021/07/14 03:18:38;;;;;;;14.53;13.13;;;;;;;21.02;88.78;100635.98;1809982;77;21094;-72
2021/07/14 03:21:04;;;;;;;14.03;12.63;;;;;;;21.07;88.54;100643.40;1847074;76;21046;-73
2021/07/14 03:23:33;;;;;;;14.47;13.07;;;;;;;21.13;88.29;100637.23;1821494;76;21035;-73
2021/07/14 03:26:00;;;;;;;14.27;12.87;;;;;;;21.20;87.97;100638.09;1838518;77;21024;-72
2021/07/14 03:28:30;;;;;;;13.17;11.87;;;;;;;21.27;87.74;100641.08;1835005;76;21038;-72
2021/07/14 03:31:02;;;;;;;15.50;14.00;;;;;;;21.35;87.56;100646.27;1806871;77;21149;-72
2021/07/14 03:33:32;;;;;;;15.87;14.23;;;;;;;21.44;87.40;100640.23;1828158;77;21579;-73
2021/07/14 03:36:01;;;;;;;16.00;14.30;;;;;;;21.53;87.13;100647.21;1841693;77;21556;-73
2021/07/14 03:38:30;;;;;;;16.33;14.83;;;;;;;21.63;86.83;100639.24;1817175;77;21077;-73
2021/07/14 03:40:57;;;;;;;15.83;14.20;;;;;;;21.69;86.60;100643.36;1832094;77;21041;-73
2021/07/14 03:43:28;;;;;;;16.43;14.40;;;;;;;21.78;86.31;100640.57;1842023;77;21157;-73
2021/07/14 03:45:55;;;;;;;16.32;14.73;;;;;;;21.87;85.97;100642.67;1838756;77;21007;-72
2021/07/14 03:48:22;;;;;;;16.20;14.60;;;;;;;21.94;85.66;100637.50;1839613;76;21042;-72
2021/07/14 03:50:50;;;;;;;16.07;14.57;;;;;;;22.01;85.36;100638.33;1846353;77;21023;-71
2021/07/14 03:53:23;;;;;;;15.77;14.27;;;;;;;22.10;85.09;100645.06;1850356;77;21148;-72
2021/07/14 03:55:50;;;;;;;16.70;14.95;;;;;;;22.19;84.93;100649.34;1837490;77;22342;-72
2021/07/14 03:58:18;;;;;;;16.57;14.97;;;;;;;22.27;84.59;100645.52;1834862;76;21200;-72
2021/07/14 04:00:46;;;;;;;18.07;14.07;;;;;;;22.37;84.36;100650.54;1813014;77;21042;-72
2021/07/14 04:03:12;;;;;;;15.97;14.47;;;;;;;22.46;84.06;100647.18;1817047;77;21026;-72
2021/07/14 04:05:45;;;;;;;15.70;14.20;;;;;;;22.57;83.82;100641.53;1850641;77;21057;-72
2021/07/14 04:08:15;;;;;;;15.20;13.70;;;;;;;22.69;83.44;100644.88;1847375;75;21000;-72
2021/07/14 04:10:42;;;;;;;15.60;14.03;;;;;;;22.81;83.33;100650.36;1786276;78;21034;-72
2021/07/14 04:13:09;;;;;;;15.90;14.20;;;;;;;22.93;82.99;100646.87;1830197;77;21002;-72
2021/07/14 04:15:37;;;;;;;18.10;16.30;;;;;;;23.04;82.66;100647.25;1825372;77;21632;-72
2021/07/14 04:18:07;;;;;;;19.87;18.07;;;;;;;23.16;82.28;100645.88;1835868;75;21058;-72
2021/07/14 04:20:33;;;;;;;23.97;21.70;;;;;;;23.28;81.95;100644.53;1843529;75;21089;-72
2021/07/14 04:22:59;;;;;;;23.17;20.90;;;;;;;23.40;81.73;100646.47;1830999;77;21011;-72
2021/07/14 04:25:28;;;;;;;20.67;18.63;;;;;;;23.51;81.42;100646.80;1810168;78;21098;-72
2021/07/14 04:27:56;;;;;;;18.83;16.90;;;;;;;23.62;81.02;100645.97;1828546;77;21027;-72
2021/07/14 04:30:24;;;;;;;18.57;16.57;;;;;;;23.74;80.55;100642.48;1828788;76;21031;-72
2021/07/14 04:32:50;;;;;;;18.27;16.10;;;;;;;23.88;80.36;100654.37;1829169;77;21075;-72
2021/07/14 04:35:17;;;;;;;16.10;14.57;;;;;;;23.97;80.08;100649.59;1850454;77;21019;-72
2021/07/14 04:37:47;;;;;;;14.80;13.30;;;;;;;24.10;79.92;100652.50;1848668;76;21112;-72
2021/07/14 04:40:13;;;;;;;15.80;14.17;;;;;;;24.21;79.42;100653.38;1808093;77;21034;-72
2021/07/14 04:42:39;;;;;;;14.20;12.90;;;;;;;24.32;79.07;100653.13;1812363;78;21097;-72
2021/07/14 04:45:07;;;;;;;14.83;13.43;;;;;;;24.44;78.61;100653.08;1798603;78;21646;-72
2021/07/14 04:47:35;;;;;;;14.17;12.73;;;;;;;24.57;78.53;100648.36;1805758;77;21089;-72
2021/07/14 04:50:03;;;;;;;14.33;12.93;;;;;;;24.69;77.58;100652.39;1810265;77;21537;-72
2021/07/14 04:52:30;;;;;;;13.60;12.20;;;;;;;24.82;76.56;100656.42;1811313;78;21049;-72
2021/07/14 04:54:58;;;;;;;12.97;11.67;;;;;;;24.92;76.16;100656.69;1815214;77;21054;-73
2021/07/14 04:57:25;;;;;;;12.53;11.23;;;;;;;25.02;75.43;100647.18;1814720;77;21103;-72
2021/07/14 04:59:51;;;;;;;12.20;11.00;;;;;;;25.13;74.50;100655.66;1809497;77;21058;-72
2021/07/14 05:02:18;;;;;;;12.80;11.60;;;;;;;25.20;73.48;100652.52;1810100;77;21026;-73
2021/07/14 05:04:44;;;;;;;13.20;11.60;;;;;;;25.26;72.81;100652.48;1846969;77;21470;-72
2021/07/14 05:07:12;;;;;;;12.63;11.43;;;;;;;25.35;72.89;100654.25;1851778;75;21171;-72
2021/07/14 05:09:39;;;;;;;12.93;11.63;;;;;;;25.44;72.51;100650.19;1851111;77;21508;-72
2021/07/14 05:12:06;;;;;;;12.30;10.97;;;;;;;25.54;71.64;100661.73;1843981;76;21648;-72
2021/07/14 05:14:33;;;;;;;13.57;12.17;;;;;;;25.63;71.09;100656.28;1843090;77;20999;-72
2021/07/14 05:17:00;;;;;;;13.10;11.83;;;;;;;25.74;70.75;100649.09;1836132;76;21037;-72
2021/07/14 05:19:27;;;;;;;12.63;11.43;;;;;;;25.85;70.40;100654.03;1835319;77;21062;-72
2021/07/14 05:21:53;;;;;;;12.23;10.97;;;;;;;25.90;69.53;100655.13;1829051;77;21111;-73
2021/07/14 05:24:22;;;;;;;11.73;10.67;;;;;;;25.93;69.90;100655.20;1835877;77;21040;-72
2021/07/14 05:26:50;;;;;;;12.00;10.80;;;;;;;26.03;69.86;100653.84;1838509;76;21078;-72
2021/07/14 05:29:18;;;;;;;12.43;11.30;;;;;;;26.11;69.04;100657.52;1820759;77;21054;-72
2021/07/14 05:31:46;;;;;;;10.90;9.80;;;;;;;26.12;69.00;100659.88;1833174;77;21041;-72
2021/07/14 05:34:13;;;;;;;11.40;10.40;;;;;;;26.18;68.85;100663.92;1836097;77;21084;-71
2021/07/14 05:36:40;;;;;;;11.53;10.43;;;;;;;26.26;68.50;100659.40;1831956;76;21066;-71
2021/07/14 05:39:07;;;;;;;11.83;10.73;;;;;;;26.35;68.60;100659.95;1836676;76;21529;-71
2021/07/14 05:41:33;;;;;;;11.90;10.73;;;;;;;26.41;68.54;100656.34;1827288;77;21105;-72
2021/07/14 05:44:00;;;;;;;11.17;10.17;;;;;;;26.53;68.59;100659.55;1829603;77;21620;-72
2021/07/14 05:46:26;;;;;;;11.57;10.03;;;;;;;26.66;68.38;100653.53;1822545;77;21307;-73
2021/07/14 05:48:55;;;;;;;10.90;9.90;;;;;;;26.82;68.48;100661.66;1815725;77;21314;-73
2021/07/14 05:51:21;;;;;;;11.07;9.50;;;;;;;26.97;68.72;100661.89;1825067;77;21046;-72
2021/07/14 05:53:48;;;;;;;11.20;10.10;;;;;;;27.11;67.76;100654.70;1800848;79;21173;-73
2021/07/14 05:56:15;;;;;;;10.70;9.70;;;;;;;27.18;67.21;100655.43;1827785;78;21484;-72
2021/07/14 05:58:42;;;;;;;10.87;9.90;;;;;;;27.28;67.07;100647.95;1828783;77;21865;-73
2021/07/14 06:01:09;;;;;;;11.00;9.67;;;;;;;27.44;66.64;100657.95;1828030;76;21125;-72
2021/07/14 06:03:37;;;;;;;10.23;9.23;;;;;;;27.53;65.17;100657.13;1824227;78;21036;-77
2021/07/14 06:06:07;;;;;;;10.67;9.57;;;;;;;27.59;64.22;100655.64;1828239;78;21051;-77
2021/07/14 06:08:33;;;;;;;9.50;8.60;;;;;;;27.62;63.87;100656.86;1821173;77;21525;-77
2021/07/14 06:11:00;;;;;;;9.83;8.63;;;;;;;27.72;63.82;100650.14;1819501;77;21162;-77
2021/07/14 06:13:28;;;;;;;9.00;8.17;;;;;;;27.81;62.96;100650.70;1827738;77;21038;-78
2021/07/14 06:15:55;;;;;;;8.60;7.67;;;;;;;27.95;61.79;100648.72;1829023;76;21055;-76
2021/07/14 06:18:21;;;;;;;9.13;8.23;;;;;;;28.04;61.21;100646.48;1829141;77;21074;-77
2021/07/14 06:20:48;;;;;;;8.47;7.63;;;;;;;28.14;60.91;100650.52;1828266;77;21049;-76
2021/07/14 06:23:15;;;;;;;8.77;7.87;;;;;;;28.25;60.96;100656.92;1824927;76;21753;-79
2021/07/14 06:25:43;;;;;;;9.23;8.33;;;;;;;28.33;59.95;100652.28;1799815;78;21053;-76
2021/07/14 06:28:13;;;;;;;9.57;8.57;;;;;;;28.41;59.29;100651.83;1817213;78;21036;-76
2021/07/14 06:30:41;;;;;;;9.93;8.93;;;;;;;28.50;59.79;100655.08;1817336;77;20995;-74
2021/07/14 06:33:07;;;;;;;8.80;8.00;;;;;;;28.51;60.08;100658.02;1837777;76;20939;-74
2021/07/14 06:35:34;;;;;;;8.73;7.83;;;;;;;28.52;59.98;100651.35;1841418;77;21059;-75
2021/07/14 06:38:01;;;;;;;8.70;7.83;;;;;;;28.59;59.94;100655.54;1828518;77;21079;-75
2021/07/14 06:40:27;;;;;;;8.60;7.70;;;;;;;28.66;59.23;100657.02;1839898;77;21153;-77
2021/07/14 06:42:54;;;;;;;8.63;7.80;;;;;;;28.68;58.26;100656.62;1821128;76;21555;-76
2021/07/14 06:45:23;;;;;;;8.17;7.37;;;;;;;28.63;57.87;100659.14;1831882;77;21527;-75
2021/07/14 06:47:50;;;;;;;7.90;7.10;;;;;;;28.69;57.51;100653.51;1827647;76;21075;-77
2021/07/14 06:50:17;;;;;;;7.77;6.97;;;;;;;28.80;56.80;100657.73;1801520;77;21024;-76
2021/07/14 06:52:43;;;;;;;7.30;6.60;;;;;;;28.90;56.21;100648.78;1807971;78;21064;-75
2021/07/14 06:55:11;;;;;;;7.23;6.53;;;;;;;28.98;55.35;100649.03;1820492;76;21038;-72
2021/07/14 06:57:38;;;;;;;6.97;6.37;;;;;;;29.08;54.35;100650.32;1826883;77;21627;-71
2021/07/14 07:00:06;;;;;;;6.83;6.23;;;;;;;29.19;54.04;100646.30;1818053;77;21083;-73
2021/07/14 07:02:32;;;;;;;6.57;5.97;;;;;;;29.21;51.97;100651.60;1827212;76;21636;-72
2021/07/14 07:04:59;;;;;;;6.47;5.23;;;;;;;29.22;51.22;100656.55;1826648;77;21057;-72
2021/07/14 07:07:26;;;;;;;6.53;5.70;;;;;;;29.30;50.85;100651.88;1847692;76;21066;-72
2021/07/14 07:09:52;;;;;;;5.93;5.43;;;;;;;29.30;48.81;100654.03;1791449;78;21014;-72
2021/07/14 07:12:20;;;;;;;6.10;5.50;;;;;;;29.31;48.96;100653.45;1823755;77;21176;-72
2021/07/14 07:14:47;;;;;;;6.60;5.90;;;;;;;29.40;48.92;100651.16;1835294;77;21063;-72
2021/07/14 07:17:15;;;;;;;6.07;5.47;;;;;;;29.54;48.94;100645.73;1828460;77;21117;-72
2021/07/14 07:19:42;;;;;;;7.33;5.75;;;;;;;29.66;47.92;100648.20;1833305;77;21182;-71
2021/07/14 07:22:08;;;;;;;8.13;6.20;;;;;;;29.74;47.52;100644.10;1838830;77;21078;-71
2021/07/14 07:24:35;;;;;;;7.03;5.78;;;;;;;29.78;47.21;100643.52;1834815;77;21787;-71
2021/07/14 07:27:03;;;;;;;6.10;5.53;;;;;;;29.82;47.50;100644.35;1825581;76;21650;-71
2021/07/14 07:29:31;;;;;;;6.10;5.50;;;;;;;29.88;46.59;100649.11;1822507;76;21057;-72
2021/07/14 07:31:58;;;;;;;6.08;5.47;;;;;;;29.89;46.87;100643.01;1830647;76;21026;-72
2021/07/14 07:34:24;;;;;;;6.03;5.30;;;;;;;29.95;46.44;100646.97;1828771;76;21109;-72
2021/07/14 07:36:51;;;;;;;6.10;5.42;;;;;;;29.96;47.69;100645.78;1820369;77;21114;-78
2021/07/14 07:39:17;;;;;;;6.42;5.50;;;;;;;30.00;47.83;100638.91;1819164;78;21015;-78
2021/07/14 07:41:44;;;;;;;6.33;5.67;;;;;;;30.10;47.74;100638.94;1819340;76;21089;-72
2021/07/14 07:44:10;;;;;;;6.30;5.70;;;;;;;30.20;46.34;100636.65;1808863;76;21566;-72
2021/07/14 07:46:37;;;;;;;6.12;5.53;;;;;;;30.21;45.95;100635.47;1818671;78;21061;-72
2021/07/14 07:49:04;;;;;;;6.83;6.12;;;;;;;30.17;45.68;100635.42;1803615;78;21654;-71
2021/07/14 07:51:31;;;;;;;7.58;5.92;;;;;;;30.14;46.23;100634.26;1819754;77;21042;-71
2021/07/14 07:53:57;;;;;;;7.78;6.00;;;;;;;30.12;46.04;100624.80;1804233;76;21018;-73
2021/07/14 07:56:31;;;;;;;6.90;6.05;;;;;;;30.10;45.84;100627.92;1846079;75;21692;-72
2021/07/14 07:58:56;;;;;;;6.22;5.60;;;;;;;30.10;46.10;100623.01;1846185;75;21031;-72
2021/07/14 08:01:23;;;;;;;7.92;5.62;;;;;;;30.23;46.49;100624.85;1801006;78;21115;-72
2021/07/14 08:03:49;;;;;;;6.47;5.80;;;;;;;30.41;46.05;100620.19;1828244;76;21094;-72
2021/07/14 08:06:16;;;;;;;5.85;5.20;;;;;;;30.57;45.29;100616.47;1827372;77;21083;-72
2021/07/14 08:08:43;;;;;;;6.67;5.90;;;;;;;30.71;44.63;100614.91;1834916;77;21039;-70
2021/07/14 08:11:11;;;;;;;6.55;5.87;;;;;;;30.77;44.56;100621.64;1838123;77;20940;-72
2021/07/14 08:13:39;;;;;;;5.50;5.00;;;;;;;30.90;44.67;100619.25;1830012;77;21125;-72
2021/07/14 08:16:07;;;;;;;5.92;5.12;;;;;;;31.03;44.16;100619.86;1824027;77;21583;-72
2021/07/14 08:18:35;;;;;;;6.05;4.95;;;;;;;31.12;43.15;100617.28;1821049;77;21081;-72
2021/07/14 08:21:04;;;;;;;5.22;4.72;;;;;;;31.13;43.22;100617.47;1819914;77;21058;-72
2021/07/14 08:23:32;;;;;;;5.87;5.03;;;;;;;31.20;40.64;100616.09;1811766;76;21062;-72
2021/07/14 08:25:59;;;;;;;5.80;5.22;;;;;;;31.14;41.28;100624.58;1827601;76;21673;-72
2021/07/14 08:28:26;;;;;;;6.42;4.95;;;;;;;31.14;41.26;100618.47;1824615;77;21300;-71
2021/07/14 08:30:53;;;;;;;4.97;4.42;;;;;;;31.26;41.62;100623.58;1838058;77;21065;-72
2021/07/14 08:33:19;;;;;;;7.08;5.30;;;;;;;31.35;39.79;100623.78;1818500;77;21420;-71
2021/07/14 08:35:46;;;;;;;5.40;4.90;;;;;;;31.35;40.51;100616.87;1822921;76;21026;-72
2021/07/14 08:38:13;;;;;;;6.15;4.95;;;;;;;31.46;40.76;100616.28;1812656;78;22562;-72
2021/07/14 08:40:40;;;;;;;5.30;4.80;;;;;;;31.60;41.08;100611.30;1802254;77;21016;-72
2021/07/14 08:43:09;;;;;;;5.50;4.85;;;;;;;31.72;41.29;100617.18;1795739;77;21587;-71
2021/07/14 08:45:38;;;;;;;5.28;4.78;;;;;;;31.87;40.66;100619.28;1820203;76;21130;-72
2021/07/14 08:48:06;;;;;;;5.97;4.83;;;;;;;31.97;41.26;100619.84;1822507;77;21036;-71
2021/07/14 08:50:33;;;;;;;5.65;4.90;;;;;;;32.06;39.64;100617.27;1825973;77;21524;-70
2021/07/14 08:53:00;;;;;;;6.53;4.70;;;;;;;32.09;39.55;100608.17;1819597;78;21552;-72
2021/07/14 08:55:27;;;;;;;5.85;5.20;;;;;;;32.16;40.13;100613.05;1813082;77;21116;-72
2021/07/14 08:57:54;;;;;;;6.47;4.80;;;;;;;32.27;40.06;100608.05;1807428;78;21034;-72
2021/07/14 09:00:23;;;;;;;5.65;5.10;;;;;;;32.41;40.46;100612.91;1824590;77;21029;-72
2021/07/14 09:02:52;;;;;;;5.50;4.83;;;;;;;32.51;39.86;100610.48;1825898;77;21130;-72
2021/07/14 09:05:20;;;;;;;5.80;5.03;;;;;;;32.64;38.85;100615.72;1813382;77;20989;-72
2021/07/14 09:07:48;;;;;;;5.58;4.97;;;;;;;32.66;39.24;100614.13;1824035;77;21030;-72
2021/07/14 09:10:17;;;;;;;5.70;4.78;;;;;;;32.70;38.97;100616.27;1824826;78;21858;-72
2021/07/14 09:12:46;;;;;;;5.83;5.33;;;;;;;32.79;38.88;100613.64;1832898;77;21030;-71
2021/07/14 09:15:21;;;;;;;6.03;5.42;;;;;;;32.75;38.02;100610.91;1828273;76;21143;-71
2021/07/14 09:17:50;;;;;;;7.10;5.83;;;;;;;32.70;37.86;100605.80;1819670;77;21560;-71
2021/07/14 09:20:21;;;;;;;6.72;5.90;;;;;;;32.73;38.61;100604.20;1821970;77;21057;-71
2021/07/14 09:22:48;;;;;;;7.12;6.42;;;;;;;32.67;39.18;100601.86;1824944;78;21560;-72
2021/07/14 09:25:17;;;;;;;7.70;6.42;;;;;;;32.69;39.76;100605.62;1814866;78;21049;-71
2021/07/14 09:27:58;;;;;;;8.00;6.65;;;;;;;32.77;40.23;100600.20;1823814;76;21044;-71
2021/07/14 09:30:27;;;;;;;7.00;6.20;;;;;;;32.86;39.35;100597.77;1818529;77;21016;-70
2021/07/14 09:32:58;;;;;;;6.55;5.85;;;;;;;32.87;39.36;100599.35;1807816;77;21045;-72
2021/07/14 09:35:42;;;;;;;6.65;5.85;;;;;;;32.91;39.88;100598.72;1847696;76;21042;-72
2021/07/14 09:38:12;;;;;;;6.75;5.37;;;;;;;33.04;39.05;100588.53;1810751;77;21066;-72
2021/07/14 09:40:41;;;;;;;6.62;6.03;;;;;;;33.08;39.03;100594.84;1812081;77;21118;-72
2021/07/14 09:43:12;;;;;;;8.08;6.47;;;;;;;33.25;38.43;100590.31;1812482;77;21080;-72
2021/07/14 09:46:00;;;;;;;6.78;6.03;;;;;;;33.25;38.43;100590.31;1836237;75;21030;-72
2021/07/14 09:48:36;;;;;;;7.87;6.50;;;;;;;33.25;38.21;100592.48;1840965;77;21081;-71
2021/07/14 09:51:10;;;;;;;7.87;6.62;;;;;;;33.33;38.53;100593.99;1825553;77;21065;-71
2021/07/14 09:53:42;;;;;;;9.03;6.92;;;;;;;33.47;38.21;100590.88;1834031;77;21742;-71
2021/07/14 09:56:27;;;;;;;9.15;7.50;;;;;;;33.52;38.24;100587.06;1833540;75;21055;-71
2021/07/14 09:59:08;;;;;;;8.38;7.12;;;;;;;33.53;38.52;100586.46;1852034;77;20996;-71
2021/07/14 10:01:50;;;;;;;7.60;6.75;;;;;;;33.52;37.60;100584.90;1830635;76;21045;-69
2021/07/14 10:04:12;;;;;;;10.68;7.28;;;;;;;33.55;36.54;100584.08;1832103;76;21022;-72
2021/07/14 10:06:39;;;;;;;12.45;7.70;;;;;;;33.64;37.97;100589.91;1833125;76;21148;-72
2021/07/14 10:09:07;;;;;;;10.58;6.80;;;;;;;33.74;37.09;100593.74;1829321;77;21045;-70
2021/07/14 10:11:36;;;;;;;9.63;6.90;;;;;;;33.79;36.08;100589.11;1807666;78;21136;-72
2021/07/14 10:14:07;;;;;;;11.93;6.77;;;;;;;33.83;36.11;100586.50;1828038;77;21062;-71
2021/07/14 10:16:37;;;;;;;;;;;;;;;33.80;35.80;100592.09;1818408;77;21037;-71
2021/07/14 10:19:10;;;;;;;10.28;6.47;;;;;;;33.83;35.84;100589.27;1810395;77;21121;-72
2021/07/14 10:21:43;;;;;;;8.45;6.40;;;;;;;33.92;36.03;100590.13;1795777;78;21034;-72
2021/07/14 10:24:14;;;;;;;9.38;6.85;;;;;;;33.97;36.33;100589.67;1811322;78;21043;-71
2021/07/14 10:26:46;;;;;;;9.85;6.90;;;;;;;33.99;35.50;100589.24;1827294;76;21088;-72
2021/07/14 10:29:13;;;;;;;11.12;6.97;;;;;;;34.03;34.47;100576.95;1824459;77;21082;-71
2021/07/14 10:31:40;;;;;;;9.10;6.47;;;;;;;34.12;34.17;100581.18;1815872;78;21068;-72
2021/07/14 10:34:08;;;;;;;11.95;7.22;;;;;;;34.19;33.61;100580.49;1818149;78;22176;-72
2021/07/14 10:36:37;;;;;;;8.65;6.60;;;;;;;34.19;35.18;100582.45;1848357;75;21548;-71
2021/07/14 10:39:14;;;;;;;7.50;6.67;;;;;;;34.19;34.28;100574.14;1814593;77;21090;-71
2021/07/14 10:41:41;;;;;;;8.45;6.60;;;;;;;34.17;33.43;100571.02;1808467;78;21638;-72
2021/07/14 10:44:08;;;;;;;8.48;6.92;;;;;;;34.11;33.95;100572.08;1797872;78;21149;-75
2021/07/14 10:46:37;;;;;;;7.15;6.12;;;;;;;34.15;33.38;100572.81;1818020;77;21073;-71
2021/07/14 10:49:06;;;;;;;7.95;7.03;;;;;;;34.18;32.46;100573.97;1823303;76;21104;-72
2021/07/14 10:51:35;;;;;;;;;;;;;;;34.11;32.99;100567.92;1827009;77;21026;-70
2021/07/14 10:54:04;;;;;;;8.00;6.70;;;;;;;34.14;33.15;100565.70;1826127;77;20136;-70
2021/07/14 10:56:35;;;;;;;9.33;7.40;;;;;;;34.19;33.01;100570.79;1836946;76;21016;-70
2021/07/14 10:59:03;;;;;;;7.55;6.67;;;;;;;34.17;32.94;100566.86;1833809;76;21112;-71
2021/07/14 11:01:47;;;;;;;8.30;6.33;;;;;;;34.19;33.28;100568.59;1810290;77;21553;-70
2021/07/14 11:04:29;;;;;;;7.05;6.00;;;;;;;34.26;32.63;100569.29;1791736;77;47802;-71
2021/07/14 11:07:07;;;;;;;9.03;6.45;;;;;;;34.33;32.85;100563.46;1821299;77;21069;-71
2021/07/14 11:09:42;;;;;;;8.35;6.53;;;;;;;34.36;33.98;100566.78;1829222;77;21127;-70
2021/07/14 11:12:12;;;;;;;8.88;6.17;;;;;;;34.44;34.01;100568.22;1828866;77;20960;-72
2021/07/14 11:14:50;;;;;;;10.00;6.75;;;;;;;34.46;33.45;100569.37;1813794;78;21035;-71
2021/07/14 11:17:20;;;;;;;11.97;7.08;;;;;;;34.42;34.17;100569.23;1815299;77;21089;-71
2021/07/14 11:19:53;;;;;;;8.98;6.28;;;;;;;34.46;34.28;100561.66;1777845;78;21002;-71
2021/07/14 11:22:42;;;;;;;7.80;6.97;;;;;;;34.47;33.58;100568.77;1836245;77;21067;-71
2021/07/14 11:25:24;;;;;;;9.73;6.87;;;;;;;34.52;33.93;100556.63;1816396;77;21033;-70
2021/07/14 11:28:08;;;;;;;8.53;6.97;;;;;;;34.62;33.97;100563.21;1828593;76;21101;-71
2021/07/14 11:30:38;;;;;;;7.47;6.22;;;;;;;34.63;33.33;100559.83;1825878;76;21459;-70
2021/07/14 11:33:05;;;;;;;9.43;6.77;;;;;;;34.69;33.69;100554.76;1841353;75;21062;-71
2021/07/14 11:35:47;;;;;;;9.38;6.72;;;;;;;34.69;33.69;100554.76;1822508;78;21583;-71